AAL857 MKJS-KPHL
Flight info
| Callsign | AAL857 |
|---|---|
| Flight time | N/A |
| Altitude | 32000 |
| Route | ALTIB UM779 ZEUSS Y329 ZFP DCT ALYRA DCT ROWSY AR18 FLRDA DCT JRDAN DCT CLAPY DCT ZJAAY JIIMS4 |
| Aircraft | A321/M-SDE3FGHIRWY/LB1 |
Departure
| Time | 2026-04-27 21:25 |
|---|---|
| Airport | Sangster International Airport (MKJS) |
Arrival
| Time | N/A |
|---|---|
| Airport | Philadelphia International Airport (KPHL) |
| Time | Latitude | Longitude | Altitude | Speed | Heading |
|---|---|---|---|---|---|
| 2026-04-27 21:05 | 18.49924 | -77.91316 | 10 ft | 0 kts | 301° |
| 2026-04-27 21:12 | 18.49918 | -77.91305 | 11 ft | 3 kts | 302° |
| 2026-04-27 21:13 | 18.49904 | -77.91285 | 12 ft | 3 kts | 310° |
| 2026-04-27 21:13 | 18.49890 | -77.91269 | 13 ft | 3 kts | 318° |
| 2026-04-27 21:13 | 18.49873 | -77.91258 | 10 ft | 3 kts | 2° |
| 2026-04-27 21:13 | 18.49853 | -77.91265 | 12 ft | 3 kts | 47° |
| 2026-04-27 21:14 | 18.49841 | -77.91283 | 12 ft | 1 kts | 65° |
| 2026-04-27 21:14 | 18.49841 | -77.91284 | 12 ft | 0 kts | 65° |
| 2026-04-27 21:18 | 18.49841 | -77.91283 | 11 ft | 1 kts | 65° |
| 2026-04-27 21:18 | 18.49852 | -77.91258 | 11 ft | 4 kts | 66° |
| 2026-04-27 21:18 | 18.49869 | -77.91219 | 10 ft | 8 kts | 58° |
| 2026-04-27 21:19 | 18.49911 | -77.91203 | 10 ft | 6 kts | 352° |
| 2026-04-27 21:19 | 18.49949 | -77.91218 | 10 ft | 8 kts | 336° |
| 2026-04-27 21:19 | 18.50000 | -77.91242 | 10 ft | 9 kts | 336° |
| 2026-04-27 21:20 | 18.50132 | -77.91304 | 10 ft | 9 kts | 336° |
| 2026-04-27 21:20 | 18.50172 | -77.91342 | 10 ft | 7 kts | 282° |
| 2026-04-27 21:20 | 18.50158 | -77.91392 | 10 ft | 11 kts | 245° |
| 2026-04-27 21:20 | 18.50117 | -77.91488 | 10 ft | 15 kts | 246° |
| 2026-04-27 21:21 | 18.50077 | -77.91580 | 10 ft | 13 kts | 245° |
| 2026-04-27 21:21 | 18.50038 | -77.91678 | 12 ft | 15 kts | 247° |
| 2026-04-27 21:21 | 18.49998 | -77.91771 | 11 ft | 13 kts | 245° |
| 2026-04-27 21:21 | 18.49957 | -77.91863 | 11 ft | 18 kts | 245° |
| 2026-04-27 21:22 | 18.49902 | -77.91990 | 11 ft | 18 kts | 245° |
| 2026-04-27 21:22 | 18.49852 | -77.92106 | 11 ft | 16 kts | 245° |
| 2026-04-27 21:22 | 18.49807 | -77.92209 | 12 ft | 14 kts | 245° |
| 2026-04-27 21:22 | 18.49766 | -77.92301 | 10 ft | 14 kts | 245° |
| 2026-04-27 21:23 | 18.49743 | -77.92390 | 10 ft | 11 kts | 286° |
| 2026-04-27 21:23 | 18.49796 | -77.92427 | 10 ft | 9 kts | 336° |
| 2026-04-27 21:23 | 18.49872 | -77.92446 | 11 ft | 11 kts | 16° |
| 2026-04-27 21:23 | 18.49900 | -77.92409 | 11 ft | 0 kts | 65° |
| 2026-04-27 21:24 | 18.49901 | -77.92406 | 13 ft | 0 kts | 66° |
| 2026-04-27 21:24 | 18.49908 | -77.92389 | 12 ft | 15 kts | 66° |
| 2026-04-27 21:24 | 18.50055 | -77.92056 | 14 ft | 83 kts | 65° |
| 2026-04-27 21:25 | 18.50373 | -77.91323 | 13 ft | 135 kts | 65° |
| 2026-04-27 21:25 | 18.50817 | -77.90285 | 89 ft | 170 kts | 65° |
| 2026-04-27 21:25 | 18.51378 | -77.89184 | 634 ft | 171 kts | 52° |
| 2026-04-27 21:25 | 18.52114 | -77.88203 | 1237 ft | 170 kts | 51° |
| 2026-04-27 21:26 | 18.52868 | -77.87262 | 1817 ft | 170 kts | 48° |
| 2026-04-27 21:26 | 18.53660 | -77.86291 | 2019 ft | 178 kts | 49° |
| 2026-04-27 21:26 | 18.54494 | -77.85269 | 2141 ft | 195 kts | 49° |
| 2026-04-27 21:26 | 18.55413 | -77.84136 | 2279 ft | 213 kts | 50° |
| 2026-04-27 21:27 | 18.56428 | -77.82886 | 2398 ft | 236 kts | 47° |
| 2026-04-27 21:27 | 18.57838 | -77.81909 | 2629 ft | 255 kts | 16° |
| 2026-04-27 21:27 | 18.59624 | -77.81815 | 3118 ft | 262 kts | 349° |
| 2026-04-27 21:27 | 18.61403 | -77.82320 | 3701 ft | 267 kts | 345° |
| 2026-04-27 21:28 | 18.63202 | -77.82829 | 4285 ft | 270 kts | 346° |
| 2026-04-27 21:28 | 18.65028 | -77.83326 | 4875 ft | 273 kts | 346° |
| 2026-04-27 21:28 | 18.66878 | -77.83821 | 5446 ft | 276 kts | 346° |
| 2026-04-27 21:28 | 18.68748 | -77.84317 | 6017 ft | 278 kts | 346° |
| 2026-04-27 21:29 | 18.70649 | -77.84823 | 6574 ft | 281 kts | 346° |
| 2026-04-27 21:29 | 18.72527 | -77.85324 | 7096 ft | 284 kts | 346° |
| 2026-04-27 21:29 | 18.74453 | -77.85839 | 7609 ft | 287 kts | 346° |
| 2026-04-27 21:29 | 18.76396 | -77.86361 | 8142 ft | 289 kts | 346° |
| 2026-04-27 21:30 | 18.78354 | -77.86887 | 8657 ft | 292 kts | 346° |
| 2026-04-27 21:30 | 18.80325 | -77.87416 | 9173 ft | 294 kts | 346° |
| 2026-04-27 21:30 | 18.82320 | -77.87950 | 9700 ft | 296 kts | 346° |
| 2026-04-27 21:30 | 18.84327 | -77.88488 | 10138 ft | 300 kts | 346° |
| 2026-04-27 21:31 | 18.86400 | -77.89045 | 10272 ft | 316 kts | 346° |
| 2026-04-27 21:31 | 18.88580 | -77.89633 | 10394 ft | 331 kts | 346° |
| 2026-04-27 21:31 | 18.90857 | -77.90244 | 10519 ft | 344 kts | 346° |
| 2026-04-27 21:31 | 18.93226 | -77.90881 | 10633 ft | 358 kts | 346° |
| 2026-04-27 21:32 | 18.95683 | -77.91542 | 10764 ft | 370 kts | 346° |
| 2026-04-27 21:32 | 18.98206 | -77.92220 | 11030 ft | 377 kts | 346° |
| 2026-04-27 21:32 | 19.00749 | -77.92905 | 11421 ft | 379 kts | 346° |
| 2026-04-27 21:32 | 19.03314 | -77.93598 | 11829 ft | 381 kts | 346° |
| 2026-04-27 21:33 | 19.05890 | -77.94293 | 12235 ft | 383 kts | 346° |
| 2026-04-27 21:33 | 19.08446 | -77.94983 | 12643 ft | 384 kts | 346° |
| 2026-04-27 21:33 | 19.11075 | -77.95693 | 13065 ft | 386 kts | 346° |
| 2026-04-27 21:33 | 19.13648 | -77.96386 | 13476 ft | 387 kts | 346° |
| 2026-04-27 21:34 | 19.16261 | -77.97088 | 13866 ft | 388 kts | 347° |
| 2026-04-27 21:34 | 19.18922 | -77.97582 | 14199 ft | 389 kts | 352° |
| 2026-04-27 21:34 | 19.21606 | -77.98005 | 14517 ft | 391 kts | 351° |
| 2026-04-27 21:34 | 19.24300 | -77.98430 | 14853 ft | 392 kts | 351° |
| 2026-04-27 21:35 | 19.26995 | -77.98860 | 15155 ft | 394 kts | 351° |
| 2026-04-27 21:35 | 19.29708 | -77.99295 | 15456 ft | 395 kts | 351° |
| 2026-04-27 21:35 | 19.32431 | -77.99731 | 15743 ft | 396 kts | 351° |
| 2026-04-27 21:35 | 19.35164 | -78.00172 | 16014 ft | 398 kts | 351° |
| 2026-04-27 21:36 | 19.37904 | -78.00616 | 16276 ft | 399 kts | 351° |
| 2026-04-27 21:36 | 19.40656 | -78.01062 | 16531 ft | 401 kts | 351° |
| 2026-04-27 21:36 | 19.43417 | -78.01508 | 16799 ft | 402 kts | 351° |
| 2026-04-27 21:36 | 19.46185 | -78.01951 | 17050 ft | 403 kts | 351° |
| 2026-04-27 21:37 | 19.48960 | -78.02395 | 17312 ft | 404 kts | 350° |
| 2026-04-27 21:37 | 19.51742 | -78.02842 | 17562 ft | 405 kts | 350° |
| 2026-04-27 21:37 | 19.54524 | -78.03289 | 17805 ft | 406 kts | 350° |
| 2026-04-27 21:37 | 19.57321 | -78.03737 | 18044 ft | 407 kts | 350° |
| 2026-04-27 21:38 | 19.60124 | -78.04187 | 18285 ft | 408 kts | 350° |
| 2026-04-27 21:38 | 19.62934 | -78.04641 | 18471 ft | 409 kts | 350° |
| 2026-04-27 21:38 | 19.65752 | -78.05099 | 18677 ft | 410 kts | 350° |
| 2026-04-27 21:38 | 19.68579 | -78.05558 | 18881 ft | 411 kts | 350° |
| 2026-04-27 21:39 | 19.71376 | -78.06012 | 19069 ft | 413 kts | 350° |
| 2026-04-27 21:39 | 19.74256 | -78.06479 | 19290 ft | 414 kts | 349° |
| 2026-04-27 21:39 | 19.77069 | -78.06933 | 19489 ft | 416 kts | 349° |
| 2026-04-27 21:39 | 19.79935 | -78.07394 | 19698 ft | 417 kts | 349° |
| 2026-04-27 21:40 | 19.82811 | -78.07856 | 19907 ft | 419 kts | 349° |
| 2026-04-27 21:40 | 19.85696 | -78.08319 | 20132 ft | 420 kts | 349° |
| 2026-04-27 21:40 | 19.88584 | -78.08782 | 20352 ft | 421 kts | 349° |
| 2026-04-27 21:40 | 19.91489 | -78.09249 | 20576 ft | 423 kts | 349° |
| 2026-04-27 21:41 | 19.94404 | -78.09719 | 20801 ft | 424 kts | 349° |
| 2026-04-27 21:41 | 19.97328 | -78.10193 | 21027 ft | 426 kts | 349° |
| 2026-04-27 21:41 | 20.00263 | -78.10669 | 21255 ft | 427 kts | 349° |
| 2026-04-27 21:41 | 20.03208 | -78.11149 | 21487 ft | 429 kts | 349° |
| 2026-04-27 21:42 | 20.06164 | -78.11630 | 21713 ft | 430 kts | 349° |
| 2026-04-27 21:42 | 20.09124 | -78.12107 | 21961 ft | 432 kts | 349° |
| 2026-04-27 21:42 | 20.12100 | -78.12585 | 22195 ft | 433 kts | 349° |
| 2026-04-27 21:42 | 20.15086 | -78.13065 | 22425 ft | 434 kts | 349° |
| 2026-04-27 21:43 | 20.18081 | -78.13548 | 22665 ft | 436 kts | 349° |
| 2026-04-27 21:43 | 20.21084 | -78.14039 | 22886 ft | 437 kts | 349° |
| 2026-04-27 21:43 | 20.24095 | -78.14535 | 23112 ft | 438 kts | 349° |
| 2026-04-27 21:43 | 20.27108 | -78.15033 | 23337 ft | 440 kts | 349° |
| 2026-04-27 21:44 | 20.30138 | -78.15530 | 23549 ft | 441 kts | 349° |
| 2026-04-27 21:44 | 20.33178 | -78.16023 | 23741 ft | 443 kts | 349° |
| 2026-04-27 21:44 | 20.36229 | -78.16515 | 23915 ft | 444 kts | 349° |
| 2026-04-27 21:44 | 20.39289 | -78.17009 | 24091 ft | 445 kts | 349° |
| 2026-04-27 21:45 | 20.42353 | -78.17503 | 24291 ft | 447 kts | 348° |
| 2026-04-27 21:45 | 20.45391 | -78.17997 | 24473 ft | 448 kts | 348° |
| 2026-04-27 21:45 | 20.48475 | -78.18501 | 24662 ft | 449 kts | 348° |
| 2026-04-27 21:45 | 20.51568 | -78.19006 | 24835 ft | 450 kts | 348° |
| 2026-04-27 21:46 | 20.54664 | -78.19509 | 25011 ft | 452 kts | 348° |
| 2026-04-27 21:46 | 20.57778 | -78.20014 | 25185 ft | 453 kts | 348° |
| 2026-04-27 21:46 | 20.60902 | -78.20519 | 25353 ft | 455 kts | 348° |
| 2026-04-27 21:46 | 20.64036 | -78.21028 | 25526 ft | 456 kts | 348° |
| 2026-04-27 21:47 | 20.67183 | -78.21540 | 25691 ft | 457 kts | 348° |
| 2026-04-27 21:47 | 20.70336 | -78.22055 | 25859 ft | 459 kts | 348° |
| 2026-04-27 21:47 | 20.73498 | -78.22575 | 26027 ft | 460 kts | 348° |
| 2026-04-27 21:47 | 20.76665 | -78.23096 | 26216 ft | 460 kts | 347° |
| 2026-04-27 21:48 | 20.79826 | -78.23614 | 26389 ft | 461 kts | 347° |
| 2026-04-27 21:48 | 20.82999 | -78.24135 | 26535 ft | 462 kts | 347° |
| 2026-04-27 21:48 | 20.86181 | -78.24656 | 26670 ft | 463 kts | 347° |
| 2026-04-27 21:48 | 20.89369 | -78.25177 | 26802 ft | 464 kts | 347° |
| 2026-04-27 21:49 | 20.92564 | -78.25698 | 26924 ft | 465 kts | 347° |
| 2026-04-27 21:49 | 20.95718 | -78.26212 | 27044 ft | 466 kts | 347° |
| 2026-04-27 21:49 | 20.98925 | -78.26737 | 27169 ft | 466 kts | 347° |
| 2026-04-27 21:49 | 21.02130 | -78.27263 | 27292 ft | 467 kts | 347° |
| 2026-04-27 21:50 | 21.05344 | -78.27791 | 27423 ft | 467 kts | 347° |
| 2026-04-27 21:50 | 21.08561 | -78.28321 | 27543 ft | 468 kts | 347° |
| 2026-04-27 21:50 | 21.11781 | -78.28851 | 27667 ft | 468 kts | 347° |
| 2026-04-27 21:50 | 21.14998 | -78.29379 | 27798 ft | 468 kts | 347° |
| 2026-04-27 21:51 | 21.18219 | -78.29907 | 27926 ft | 468 kts | 347° |
| 2026-04-27 21:51 | 21.21444 | -78.30435 | 28058 ft | 469 kts | 347° |
| 2026-04-27 21:51 | 21.24668 | -78.30965 | 28181 ft | 468 kts | 347° |
| 2026-04-27 21:51 | 21.27891 | -78.31496 | 28308 ft | 468 kts | 347° |
| 2026-04-27 21:52 | 21.31113 | -78.32028 | 28436 ft | 468 kts | 347° |
| 2026-04-27 21:52 | 21.34334 | -78.32560 | 28557 ft | 468 kts | 347° |
| 2026-04-27 21:52 | 21.37555 | -78.33092 | 28695 ft | 468 kts | 347° |
| 2026-04-27 21:52 | 21.40774 | -78.33621 | 28864 ft | 467 kts | 346° |
| 2026-04-27 21:53 | 21.43935 | -78.34140 | 29056 ft | 465 kts | 346° |
| 2026-04-27 21:53 | 21.47134 | -78.34666 | 29207 ft | 465 kts | 346° |
| 2026-04-27 21:53 | 21.50329 | -78.35192 | 29341 ft | 464 kts | 346° |
| 2026-04-27 21:53 | 21.53519 | -78.35720 | 29477 ft | 463 kts | 346° |
| 2026-04-27 21:54 | 21.56698 | -78.36246 | 29606 ft | 463 kts | 346° |
| 2026-04-27 21:54 | 21.59885 | -78.36773 | 29741 ft | 463 kts | 346° |
| 2026-04-27 21:54 | 21.63066 | -78.37302 | 29877 ft | 462 kts | 346° |
| 2026-04-27 21:54 | 21.66244 | -78.37829 | 30009 ft | 462 kts | 346° |
| 2026-04-27 21:55 | 21.69419 | -78.38357 | 30139 ft | 461 kts | 346° |
| 2026-04-27 21:55 | 21.72583 | -78.38882 | 30269 ft | 461 kts | 346° |
| 2026-04-27 21:55 | 21.75751 | -78.39406 | 30390 ft | 460 kts | 346° |
| 2026-04-27 21:55 | 21.78915 | -78.39926 | 30509 ft | 460 kts | 346° |
| 2026-04-27 21:56 | 21.82075 | -78.40445 | 30624 ft | 459 kts | 346° |
| 2026-04-27 21:56 | 21.88385 | -78.41485 | 30854 ft | 458 kts | 346° |
| 2026-04-27 21:56 | 21.91529 | -78.42008 | 30969 ft | 458 kts | 346° |
| 2026-04-27 21:57 | 21.94676 | -78.42537 | 31090 ft | 457 kts | 345° |
| 2026-04-27 21:57 | 21.97820 | -78.43066 | 31207 ft | 457 kts | 345° |
| 2026-04-27 21:57 | 22.00957 | -78.43590 | 31324 ft | 457 kts | 345° |
| 2026-04-27 21:57 | 22.04063 | -78.44106 | 31441 ft | 457 kts | 345° |
| 2026-04-27 21:58 | 22.07245 | -78.44633 | 31584 ft | 457 kts | 345° |
| 2026-04-27 21:58 | 22.10343 | -78.45145 | 31700 ft | 457 kts | 345° |
| 2026-04-27 21:58 | 22.13483 | -78.45668 | 31820 ft | 456 kts | 345° |
| 2026-04-27 21:58 | 22.16619 | -78.46191 | 31968 ft | 456 kts | 345° |
| 2026-04-27 21:59 | 22.19746 | -78.46714 | 32010 ft | 455 kts | 345° |
| 2026-04-27 21:59 | 22.26005 | -78.47760 | 32018 ft | 455 kts | 345° |
| 2026-04-27 22:00 | 22.32263 | -78.48803 | 32024 ft | 455 kts | 345° |
| 2026-04-27 22:00 | 22.38509 | -78.49844 | 32041 ft | 454 kts | 345° |
| 2026-04-27 22:01 | 22.44734 | -78.50884 | 32027 ft | 452 kts | 345° |
| 2026-04-27 22:01 | 22.50943 | -78.51924 | 32028 ft | 452 kts | 345° |
| 2026-04-27 22:02 | 22.57157 | -78.52970 | 32031 ft | 452 kts | 345° |
| 2026-04-27 22:02 | 22.62325 | -78.53834 | 32034 ft | 452 kts | 345° |
| 2026-04-27 22:03 | 22.69545 | -78.55043 | 32056 ft | 452 kts | 345° |
| 2026-04-27 22:03 | 22.75759 | -78.56090 | 32052 ft | 452 kts | 345° |
| 2026-04-27 22:04 | 22.81951 | -78.57166 | 32046 ft | 450 kts | 344° |
| 2026-04-27 22:04 | 22.88120 | -78.58342 | 32046 ft | 450 kts | 343° |
| 2026-04-27 22:05 | 22.94281 | -78.59533 | 32046 ft | 450 kts | 344° |
| 2026-04-27 22:05 | 23.00438 | -78.60701 | 32045 ft | 450 kts | 344° |
| 2026-04-27 22:06 | 23.05564 | -78.61661 | 32061 ft | 449 kts | 344° |
| 2026-04-27 22:06 | 23.11724 | -78.62816 | 32054 ft | 449 kts | 344° |
| 2026-04-27 22:07 | 23.17866 | -78.63976 | 32051 ft | 448 kts | 344° |
| 2026-04-27 22:07 | 23.24014 | -78.65143 | 32051 ft | 448 kts | 344° |
| 2026-04-27 22:08 | 23.30149 | -78.66305 | 32046 ft | 448 kts | 344° |
| 2026-04-27 22:08 | 23.36290 | -78.67464 | 32077 ft | 448 kts | 345° |
| 2026-04-27 22:09 | 23.42415 | -78.68622 | 32065 ft | 446 kts | 345° |
| 2026-04-27 22:09 | 23.48530 | -78.69786 | 32045 ft | 446 kts | 345° |
| 2026-04-27 22:10 | 23.54639 | -78.70945 | 32052 ft | 445 kts | 345° |
| 2026-04-27 22:10 | 23.60739 | -78.72095 | 32045 ft | 445 kts | 345° |
| 2026-04-27 22:11 | 23.66842 | -78.73253 | 32067 ft | 445 kts | 345° |
| 2026-04-27 22:11 | 23.72938 | -78.74421 | 32064 ft | 444 kts | 345° |
| 2026-04-27 22:12 | 23.78980 | -78.75571 | 32063 ft | 444 kts | 345° |
| 2026-04-27 22:12 | 23.85062 | -78.76723 | 32062 ft | 443 kts | 345° |
| 2026-04-27 22:13 | 23.91133 | -78.77877 | 32059 ft | 443 kts | 345° |
| 2026-04-27 22:13 | 23.97208 | -78.79039 | 32058 ft | 443 kts | 345° |
| 2026-04-27 22:14 | 24.03395 | -78.79457 | 32070 ft | 450 kts | 357° |
| 2026-04-27 22:14 | 24.09644 | -78.79212 | 32065 ft | 449 kts | 356° |
| 2026-04-27 22:15 | 24.15894 | -78.78985 | 32065 ft | 449 kts | 356° |
| 2026-04-27 22:15 | 24.22140 | -78.78754 | 32063 ft | 449 kts | 356° |
| 2026-04-27 22:16 | 24.28383 | -78.78517 | 32057 ft | 449 kts | 357° |
| 2026-04-27 22:16 | 24.34617 | -78.78276 | 32057 ft | 448 kts | 357° |
| 2026-04-27 22:17 | 24.40854 | -78.78034 | 32054 ft | 448 kts | 357° |
| 2026-04-27 22:17 | 24.47088 | -78.77794 | 32048 ft | 448 kts | 356° |
| 2026-04-27 22:18 | 24.53314 | -78.77566 | 32044 ft | 448 kts | 356° |
| 2026-04-27 22:18 | 24.59557 | -78.77340 | 32086 ft | 448 kts | 357° |
| 2026-04-27 22:19 | 24.65745 | -78.77111 | 32074 ft | 448 kts | 357° |
| 2026-04-27 22:19 | 24.71960 | -78.76874 | 32069 ft | 447 kts | 357° |
| 2026-04-27 22:20 | 24.78177 | -78.76634 | 32067 ft | 447 kts | 357° |
| 2026-04-27 22:20 | 24.84391 | -78.76398 | 32065 ft | 446 kts | 357° |
| 2026-04-27 22:21 | 24.90594 | -78.76155 | 32081 ft | 446 kts | 357° |
| 2026-04-27 22:21 | 24.96796 | -78.75914 | 32075 ft | 445 kts | 357° |
| 2026-04-27 22:22 | 25.02981 | -78.75680 | 32069 ft | 444 kts | 357° |
| 2026-04-27 22:22 | 25.09153 | -78.75451 | 32064 ft | 443 kts | 357° |
| 2026-04-27 22:23 | 25.15309 | -78.75219 | 32060 ft | 443 kts | 357° |
| 2026-04-27 22:23 | 25.21469 | -78.74984 | 32073 ft | 443 kts | 357° |
| 2026-04-27 22:24 | 25.27625 | -78.74751 | 32070 ft | 442 kts | 357° |
| 2026-04-27 22:24 | 25.33772 | -78.74511 | 32071 ft | 442 kts | 358° |
| 2026-04-27 22:25 | 25.39907 | -78.74270 | 32067 ft | 441 kts | 358° |
| 2026-04-27 22:25 | 25.45997 | -78.74037 | 32064 ft | 441 kts | 358° |
| 2026-04-27 22:26 | 25.52130 | -78.73803 | 32081 ft | 441 kts | 358° |
| 2026-04-27 22:26 | 25.58255 | -78.73569 | 32073 ft | 440 kts | 358° |
| 2026-04-27 22:27 | 25.64365 | -78.73331 | 32068 ft | 440 kts | 358° |
| 2026-04-27 22:27 | 25.70478 | -78.73092 | 32066 ft | 439 kts | 358° |
| 2026-04-27 22:28 | 25.76585 | -78.72864 | 32061 ft | 439 kts | 358° |
| 2026-04-27 22:28 | 25.82688 | -78.72627 | 32072 ft | 439 kts | 358° |
| 2026-04-27 22:29 | 25.88796 | -78.72385 | 32072 ft | 439 kts | 358° |
| 2026-04-27 22:29 | 25.94886 | -78.72149 | 32069 ft | 438 kts | 358° |
| 2026-04-27 22:30 | 26.00937 | -78.71914 | 32068 ft | 437 kts | 358° |
| 2026-04-27 22:30 | 26.07015 | -78.71677 | 32064 ft | 437 kts | 358° |
| 2026-04-27 22:31 | 26.13097 | -78.71443 | 32080 ft | 437 kts | 358° |
| 2026-04-27 22:31 | 26.19177 | -78.71204 | 32077 ft | 437 kts | 358° |
| 2026-04-27 22:32 | 26.25241 | -78.70973 | 32076 ft | 436 kts | 358° |
| 2026-04-27 22:32 | 26.31304 | -78.70744 | 32075 ft | 436 kts | 358° |
| 2026-04-27 22:33 | 26.37371 | -78.70502 | 32062 ft | 436 kts | 358° |
| 2026-04-27 22:33 | 26.43437 | -78.70259 | 32091 ft | 436 kts | 359° |
| 2026-04-27 22:34 | 26.49459 | -78.70024 | 32078 ft | 436 kts | 359° |
| 2026-04-27 22:34 | 26.55528 | -78.69782 | 32077 ft | 436 kts | 360° |
| 2026-04-27 22:35 | 26.61591 | -78.69232 | 32075 ft | 438 kts | 3° |
| 2026-04-27 22:35 | 26.67643 | -78.68426 | 32071 ft | 438 kts | 4° |
| 2026-04-27 22:36 | 26.73699 | -78.67631 | 32064 ft | 438 kts | 4° |
| 2026-04-27 22:36 | 26.79762 | -78.66909 | 32059 ft | 439 kts | 4° |
| 2026-04-27 22:37 | 26.85839 | -78.66213 | 32052 ft | 439 kts | 4° |
| 2026-04-27 22:37 | 26.91919 | -78.65495 | 32052 ft | 439 kts | 4° |
| 2026-04-27 22:38 | 26.97956 | -78.64769 | 32053 ft | 440 kts | 4° |
| 2026-04-27 22:38 | 27.04037 | -78.64044 | 32058 ft | 440 kts | 4° |
| 2026-04-27 22:39 | 27.10133 | -78.63320 | 32052 ft | 440 kts | 4° |
| 2026-04-27 22:39 | 27.16232 | -78.62594 | 32056 ft | 441 kts | 4° |
| 2026-04-27 22:40 | 27.22324 | -78.61870 | 32053 ft | 441 kts | 4° |
| 2026-04-27 22:40 | 27.28427 | -78.61141 | 32058 ft | 441 kts | 4° |
| 2026-04-27 22:41 | 27.34535 | -78.60411 | 32059 ft | 441 kts | 4° |
| 2026-04-27 22:41 | 27.40639 | -78.59679 | 32067 ft | 442 kts | 4° |
| 2026-04-27 22:42 | 27.46752 | -78.58945 | 32071 ft | 442 kts | 4° |
| 2026-04-27 22:42 | 27.52866 | -78.58212 | 32073 ft | 442 kts | 4° |
| 2026-04-27 22:43 | 27.58937 | -78.57488 | 32075 ft | 442 kts | 4° |
| 2026-04-27 22:43 | 27.65065 | -78.56751 | 32052 ft | 444 kts | 4° |
| 2026-04-27 22:44 | 27.71209 | -78.56012 | 32051 ft | 445 kts | 5° |
| 2026-04-27 22:44 | 27.77377 | -78.55261 | 32055 ft | 446 kts | 5° |
| 2026-04-27 22:45 | 27.83552 | -78.54507 | 32061 ft | 446 kts | 4° |
| 2026-04-27 22:45 | 27.89732 | -78.53762 | 32074 ft | 446 kts | 4° |
| 2026-04-27 22:46 | 27.95903 | -78.53012 | 32080 ft | 446 kts | 4° |
| 2026-04-27 22:46 | 28.02069 | -78.52270 | 32076 ft | 446 kts | 4° |
| 2026-04-27 22:47 | 28.08236 | -78.51531 | 32090 ft | 445 kts | 4° |
| 2026-04-27 22:47 | 28.14357 | -78.50788 | 32083 ft | 445 kts | 4° |
| 2026-04-27 22:48 | 28.20550 | -78.50027 | 32095 ft | 444 kts | 4° |
| 2026-04-27 22:48 | 28.26647 | -78.49286 | 32097 ft | 443 kts | 4° |
| 2026-04-27 22:49 | 28.32777 | -78.48542 | 32090 ft | 443 kts | 4° |
| 2026-04-27 22:49 | 28.38893 | -78.47796 | 32085 ft | 442 kts | 4° |
| 2026-04-27 22:50 | 28.45013 | -78.47045 | 32086 ft | 442 kts | 4° |
| 2026-04-27 22:50 | 28.51129 | -78.46297 | 32100 ft | 442 kts | 4° |
| 2026-04-27 22:51 | 28.57231 | -78.45553 | 32097 ft | 441 kts | 4° |
| 2026-04-27 22:51 | 28.63338 | -78.44814 | 32097 ft | 441 kts | 4° |
| 2026-04-27 22:52 | 28.69442 | -78.44066 | 32097 ft | 441 kts | 4° |
| 2026-04-27 22:52 | 28.75539 | -78.43311 | 32101 ft | 440 kts | 4° |
| 2026-04-27 22:53 | 28.81618 | -78.42563 | 32109 ft | 439 kts | 4° |
| 2026-04-27 22:53 | 28.87695 | -78.41816 | 32110 ft | 439 kts | 5° |
| 2026-04-27 22:54 | 28.93761 | -78.41066 | 32108 ft | 439 kts | 4° |
| 2026-04-27 22:54 | 28.99830 | -78.40326 | 32109 ft | 438 kts | 4° |
| 2026-04-27 22:55 | 29.05895 | -78.39575 | 32112 ft | 438 kts | 5° |
| 2026-04-27 22:55 | 29.11945 | -78.38824 | 32115 ft | 437 kts | 5° |
| 2026-04-27 22:56 | 29.17957 | -78.38081 | 32116 ft | 437 kts | 5° |
| 2026-04-27 22:56 | 29.23996 | -78.37336 | 32115 ft | 437 kts | 5° |
| 2026-04-27 22:57 | 29.30041 | -78.36586 | 32117 ft | 437 kts | 5° |
| 2026-04-27 22:57 | 29.36087 | -78.35832 | 32121 ft | 437 kts | 5° |
| 2026-04-27 22:58 | 29.42126 | -78.35080 | 32120 ft | 437 kts | 5° |
| 2026-04-27 22:58 | 29.48175 | -78.34328 | 32123 ft | 437 kts | 5° |
| 2026-04-27 22:59 | 29.54228 | -78.33719 | 32125 ft | 437 kts | 2° |
| 2026-04-27 22:59 | 29.60293 | -78.33296 | 32130 ft | 436 kts | 2° |
| 2026-04-27 23:00 | 29.68360 | -78.32736 | 32123 ft | 437 kts | 2° |
| 2026-04-27 23:00 | 29.75409 | -78.32179 | 32123 ft | 437 kts | 2° |
| 2026-04-27 23:01 | 29.81463 | -78.31683 | 32126 ft | 436 kts | 2° |
| 2026-04-27 23:01 | 29.86539 | -78.31280 | 32123 ft | 436 kts | 2° |
| 2026-04-27 23:02 | 29.92565 | -78.30815 | 32130 ft | 437 kts | 2° |
| 2026-04-27 23:02 | 29.98628 | -78.30337 | 32125 ft | 437 kts | 2° |
| 2026-04-27 23:03 | 30.04688 | -78.29856 | 32125 ft | 437 kts | 2° |
| 2026-04-27 23:03 | 30.10755 | -78.29374 | 32125 ft | 437 kts | 2° |
| 2026-04-27 23:04 | 30.16822 | -78.28889 | 32122 ft | 437 kts | 2° |
| 2026-04-27 23:04 | 30.22880 | -78.28407 | 32122 ft | 437 kts | 2° |
| 2026-04-27 23:05 | 30.28944 | -78.27935 | 32123 ft | 437 kts | 2° |
| 2026-04-27 23:05 | 30.35007 | -78.27445 | 32121 ft | 437 kts | 2° |
| 2026-04-27 23:06 | 30.41062 | -78.26957 | 32119 ft | 437 kts | 2° |
| 2026-04-27 23:06 | 30.47090 | -78.26477 | 32131 ft | 437 kts | 2° |
| 2026-04-27 23:07 | 30.53150 | -78.25994 | 32128 ft | 437 kts | 2° |
| 2026-04-27 23:07 | 30.59222 | -78.25510 | 32128 ft | 437 kts | 2° |
| 2026-04-27 23:08 | 30.65296 | -78.25024 | 32131 ft | 437 kts | 2° |
| 2026-04-27 23:08 | 30.71375 | -78.24536 | 32143 ft | 438 kts | 2° |
| 2026-04-27 23:09 | 30.77445 | -78.24047 | 32146 ft | 437 kts | 1° |
| 2026-04-27 23:09 | 30.83517 | -78.23556 | 32146 ft | 437 kts | 1° |
| 2026-04-27 23:10 | 30.89584 | -78.23074 | 32156 ft | 437 kts | 1° |